createdAt,value
2022-09-07T00:02:25.377Z,23.01
2022-09-07T00:04:51.558Z,22.87
2022-09-07T00:07:17.778Z,22.64
2022-09-07T00:09:44.184Z,22.21
2022-09-07T00:12:10.424Z,22.01
2022-09-07T00:14:36.674Z,22.18
2022-09-07T00:17:02.852Z,22.11
2022-09-07T00:19:29.038Z,21.89
2022-09-07T00:21:55.225Z,21.86
2022-09-07T00:24:21.402Z,21.69
2022-09-07T00:26:47.592Z,21.52
2022-09-07T00:29:13.740Z,21.35
2022-09-07T00:31:39.959Z,21.40
2022-09-07T00:34:06.136Z,21.39
2022-09-07T00:36:32.274Z,21.20
2022-09-07T00:38:58.475Z,21.32
2022-09-07T00:41:24.608Z,20.91
2022-09-07T00:43:50.750Z,20.70
2022-09-07T00:46:16.961Z,20.83
2022-09-07T00:48:43.115Z,20.64
2022-09-07T00:51:09.249Z,20.64
2022-09-07T00:53:35.754Z,20.72
2022-09-07T00:56:01.881Z,20.61
2022-09-07T00:58:28.113Z,20.60
2022-09-07T01:00:54.375Z,20.51
2022-09-07T01:03:20.537Z,20.56
2022-09-07T01:05:46.670Z,20.53
2022-09-07T01:08:12.820Z,20.31
2022-09-07T01:10:38.940Z,20.32
2022-09-07T01:13:05.086Z,20.26
2022-09-07T01:15:31.240Z,20.21
2022-09-07T01:17:57.368Z,20.22
2022-09-07T01:20:23.530Z,20.18
2022-09-07T01:22:49.700Z,19.98
2022-09-07T01:25:15.827Z,19.92
2022-09-07T01:27:41.957Z,19.85
2022-09-07T01:30:08.112Z,19.53
2022-09-07T01:32:34.246Z,19.52
2022-09-07T01:35:00.391Z,19.32
2022-09-07T01:37:26.847Z,19.26
2022-09-07T01:39:53.003Z,19.30
2022-09-07T01:42:19.165Z,19.34
2022-09-07T01:44:45.810Z,19.24
2022-09-07T01:47:11.950Z,19.30
2022-09-07T01:49:38.089Z,19.36
2022-09-07T01:52:04.251Z,19.30
2022-09-07T01:54:31.696Z,19.21
2022-09-07T01:56:57.829Z,19.07
2022-09-07T01:59:23.989Z,19.27
2022-09-07T02:01:50.152Z,19.29
2022-09-07T02:04:16.333Z,19.43
2022-09-07T02:06:42.490Z,19.46
2022-09-07T02:09:08.634Z,19.47
2022-09-07T02:11:34.768Z,19.54
2022-09-07T02:14:00.927Z,19.51
2022-09-07T02:16:27.063Z,19.55
2022-09-07T02:18:53.193Z,19.51
2022-09-07T02:21:19.338Z,19.52
2022-09-07T02:23:45.478Z,19.50
2022-09-07T02:26:11.605Z,19.53
2022-09-07T02:28:37.748Z,19.12
2022-09-07T02:31:03.929Z,19.14
2022-09-07T02:33:30.083Z,19.27
2022-09-07T02:35:56.234Z,19.30
2022-09-07T02:38:22.361Z,19.37
2022-09-07T02:40:48.494Z,19.43
2022-09-07T02:43:14.655Z,19.41
2022-09-07T02:45:40.780Z,19.42
2022-09-07T02:48:06.917Z,19.40
2022-09-07T02:50:33.066Z,19.41
2022-09-07T02:52:59.200Z,19.34
2022-09-07T02:55:25.327Z,19.30
2022-09-07T02:57:51.456Z,19.30
2022-09-07T03:00:17.592Z,19.30
2022-09-07T03:02:43.745Z,19.29
2022-09-07T03:05:09.902Z,19.30
2022-09-07T03:07:37.002Z,19.27
2022-09-07T03:10:05.147Z,19.18
2022-09-07T03:12:31.306Z,19.16
2022-09-07T03:14:57.443Z,19.08
2022-09-07T03:17:23.580Z,19.03
2022-09-07T03:19:49.738Z,18.98
2022-09-07T03:22:15.875Z,18.98
2022-09-07T03:24:42.025Z,18.99
2022-09-07T03:27:08.171Z,18.98
2022-09-07T03:29:34.297Z,19.02
2022-09-07T03:32:00.459Z,18.92
2022-09-07T03:34:26.604Z,18.81
2022-09-07T03:36:52.733Z,18.84
2022-09-07T03:39:18.869Z,18.85
2022-09-07T03:41:45.301Z,18.82
2022-09-07T03:44:11.429Z,18.77
2022-09-07T03:46:37.570Z,18.76
2022-09-07T03:49:04.219Z,18.60
2022-09-07T03:51:30.368Z,18.47
2022-09-07T03:53:56.520Z,18.60
2022-09-07T03:56:22.680Z,18.77
2022-09-07T03:58:48.820Z,18.85
2022-09-07T04:01:15.011Z,18.77
2022-09-07T04:03:41.182Z,18.78
2022-09-07T04:06:07.315Z,18.84
2022-09-07T04:08:33.450Z,18.66
2022-09-07T04:10:59.608Z,18.62
2022-09-07T04:13:25.745Z,18.60
2022-09-07T04:15:53.861Z,18.58
2022-09-07T04:18:20.261Z,18.55
2022-09-07T04:20:46.398Z,18.46
2022-09-07T04:23:12.535Z,18.35
2022-09-07T04:25:38.676Z,18.33
2022-09-07T04:28:04.814Z,18.27
2022-09-07T04:30:31.008Z,18.22
2022-09-07T04:32:57.185Z,18.29
2022-09-07T04:35:23.304Z,18.16
2022-09-07T04:37:49.458Z,18.27
2022-09-07T04:40:15.637Z,18.13
2022-09-07T04:42:41.841Z,18.25
2022-09-07T04:45:07.965Z,18.25
2022-09-07T04:47:34.122Z,18.42
2022-09-07T04:50:00.281Z,18.36
2022-09-07T04:52:26.412Z,18.37
2022-09-07T04:54:53.028Z,18.24
2022-09-07T04:57:19.166Z,18.23
2022-09-07T04:59:45.300Z,18.20
2022-09-07T05:02:11.523Z,18.31
2022-09-07T05:04:37.668Z,18.27
2022-09-07T05:07:03.799Z,18.14
2022-09-07T05:09:29.962Z,17.98
2022-09-07T05:11:56.110Z,18.02
2022-09-07T05:14:22.272Z,18.08
2022-09-07T05:16:48.469Z,18.01
2022-09-07T05:19:14.617Z,18.02
2022-09-07T05:21:40.762Z,17.97
2022-09-07T05:24:06.925Z,18.02
2022-09-07T05:26:33.077Z,18.07
2022-09-07T05:31:45.364Z,18.09
2022-09-07T05:36:57.641Z,18.14
2022-09-07T05:39:23.759Z,18.12
2022-09-07T05:41:49.889Z,18.17
2022-09-07T05:47:02.201Z,18.25
2022-09-07T05:49:28.360Z,18.26
2022-09-07T05:51:54.482Z,18.25
2022-09-07T05:54:20.605Z,18.22
2022-09-07T05:56:47.303Z,18.31
2022-09-07T05:59:13.428Z,18.40
2022-09-07T06:01:39.601Z,18.50
2022-09-07T06:04:05.810Z,18.45
2022-09-07T06:06:31.942Z,18.46
2022-09-07T06:08:58.075Z,18.47
2022-09-07T06:11:24.522Z,18.39
2022-09-07T06:13:50.659Z,18.57
2022-09-07T06:16:16.907Z,18.68
2022-09-07T06:18:43.072Z,18.65
2022-09-07T06:21:09.194Z,18.53
2022-09-07T06:23:35.321Z,18.71
2022-09-07T06:26:01.810Z,18.87
2022-09-07T06:28:27.951Z,18.88
2022-09-07T06:30:54.142Z,18.99
2022-09-07T06:33:31.630Z,19.04
2022-09-07T06:35:57.859Z,19.11
2022-09-07T06:38:24.776Z,19.18
2022-09-07T06:43:40.001Z,19.18
2022-09-07T06:48:55.138Z,19.42
2022-09-07T06:51:21.294Z,19.48
2022-09-07T06:53:48.010Z,19.52
2022-09-07T06:56:14.281Z,19.61
2022-09-07T06:58:42.392Z,19.69
2022-09-07T07:01:08.774Z,19.74
2022-09-07T07:03:34.975Z,19.84
2022-09-07T07:06:01.152Z,19.96
2022-09-07T07:08:27.282Z,20.02
2022-09-07T07:10:53.429Z,19.93
2022-09-07T07:15:44.615Z,19.88
2022-09-07T07:18:20.898Z,19.93
2022-09-07T07:20:47.560Z,19.90
2022-09-07T07:23:13.790Z,19.95
2022-09-07T07:25:39.953Z,20.02
2022-09-07T07:30:52.240Z,20.08
2022-09-07T07:33:18.378Z,20.11
2022-09-07T07:35:44.477Z,20.03
2022-09-07T07:43:42.752Z,20.14
2022-09-07T07:46:08.885Z,20.27
2022-09-07T07:48:35.043Z,20.30
2022-09-07T07:51:04.388Z,20.41
2022-09-07T07:53:42.002Z,20.50
2022-09-07T07:56:08.644Z,20.54
2022-09-07T07:58:34.745Z,20.62
2022-09-07T08:01:00.940Z,20.73
2022-09-07T08:03:27.248Z,20.89
2022-09-07T08:05:53.413Z,20.90
2022-09-07T08:08:19.493Z,21.00
2022-09-07T08:10:45.706Z,21.14
2022-09-07T08:13:11.804Z,21.22
2022-09-07T08:15:37.895Z,21.23
2022-09-07T08:18:04.511Z,21.24
2022-09-07T08:20:30.617Z,21.27
2022-09-07T08:22:56.722Z,21.38
2022-09-07T08:25:22.837Z,21.37
2022-09-07T08:27:48.954Z,21.45
2022-09-07T08:30:15.058Z,21.34
2022-09-07T08:32:41.175Z,21.38
2022-09-07T08:35:07.283Z,21.43
2022-09-07T08:37:33.382Z,21.43
2022-09-07T08:39:59.556Z,21.40
2022-09-07T08:42:25.686Z,21.43
2022-09-07T08:44:51.793Z,21.39
2022-09-07T08:47:18.244Z,21.52
2022-09-07T08:49:44.346Z,21.51
2022-09-07T08:52:10.449Z,21.55
2022-09-07T08:54:36.562Z,21.70
2022-09-07T08:59:48.745Z,21.69
2022-09-07T09:02:33.678Z,21.64
2022-09-07T09:05:17.836Z,21.73
2022-09-07T09:07:44.494Z,21.61
2022-09-07T09:10:10.611Z,21.64
2022-09-07T09:12:37.872Z,21.63
2022-09-07T09:15:04.113Z,21.78
2022-09-07T09:17:30.247Z,21.73
2022-09-07T09:19:56.368Z,21.87
2022-09-07T09:22:22.490Z,21.93
2022-09-07T09:24:48.614Z,22.03
2022-09-07T09:27:14.737Z,21.92
2022-09-07T09:29:40.830Z,21.85
2022-09-07T09:32:06.999Z,21.89
2022-09-07T09:34:35.133Z,21.98
2022-09-07T09:37:01.398Z,21.98
2022-09-07T09:39:27.642Z,22.09
2022-09-07T09:41:53.809Z,22.23
2022-09-07T09:44:19.921Z,22.26
2022-09-07T09:46:46.137Z,22.40
2022-09-07T09:49:12.295Z,22.58
2022-09-07T09:54:24.520Z,22.87
2022-09-07T09:56:50.639Z,22.87
2022-09-07T10:04:48.951Z,22.94
2022-09-07T10:07:15.073Z,22.99
2022-09-07T10:09:41.169Z,22.89
2022-09-07T10:12:07.969Z,23.09
2022-09-07T10:14:34.559Z,23.25
2022-09-07T10:17:02.145Z,23.47
2022-09-07T10:19:28.417Z,23.63
2022-09-07T10:21:54.598Z,23.75
2022-09-07T10:24:20.679Z,23.57
2022-09-07T10:26:46.776Z,23.73
2022-09-07T10:29:13.168Z,23.62
2022-09-07T10:31:39.659Z,23.53
2022-09-07T10:36:51.938Z,23.85
2022-09-07T10:39:18.022Z,23.86
2022-09-07T10:41:44.106Z,23.89
2022-09-07T10:44:10.226Z,24.16
2022-09-07T10:49:22.699Z,24.21
2022-09-07T10:51:48.802Z,24.27
2022-09-07T10:54:30.834Z,24.23
2022-09-07T10:56:57.320Z,24.27
2022-09-07T10:59:23.959Z,24.44
2022-09-07T11:01:50.181Z,24.50
2022-09-07T11:04:16.329Z,24.51
2022-09-07T11:06:42.426Z,24.56
2022-09-07T11:09:16.958Z,24.47
2022-09-07T11:14:30.511Z,24.38
2022-09-07T11:16:56.672Z,24.24
2022-09-07T11:19:38.363Z,24.09
2022-09-07T11:22:04.597Z,24.16
2022-09-07T11:24:30.877Z,24.12
2022-09-07T11:26:56.972Z,24.15
2022-09-07T11:29:30.113Z,23.99
2022-09-07T11:31:56.228Z,23.60
2022-09-07T11:34:25.494Z,23.72
2022-09-07T11:36:51.726Z,23.73
2022-09-07T11:39:17.808Z,23.71
2022-09-07T11:41:43.893Z,23.67
2022-09-07T11:44:10.005Z,23.65
2022-09-07T11:46:36.154Z,23.72
2022-09-07T11:49:04.457Z,23.74
2022-09-07T11:51:30.861Z,24.06
2022-09-07T11:53:56.955Z,24.01
2022-09-07T11:56:23.068Z,23.91
2022-09-07T11:58:49.266Z,23.95
2022-09-07T12:01:15.371Z,24.14
2022-09-07T12:03:41.547Z,24.06
2022-09-07T12:06:07.718Z,24.01
2022-09-07T12:08:33.803Z,24.09
2022-09-07T12:10:59.896Z,23.93
2022-09-07T12:13:26.480Z,24.03
2022-09-07T12:15:52.661Z,24.34
2022-09-07T12:18:18.803Z,24.40
2022-09-07T12:20:44.905Z,24.41
2022-09-07T12:23:11.003Z,24.24
2022-09-07T12:25:37.098Z,24.21
2022-09-07T12:28:03.268Z,24.16
2022-09-07T12:30:29.360Z,24.33
2022-09-07T12:32:56.889Z,24.19
2022-09-07T12:35:24.010Z,24.25
2022-09-07T12:37:50.112Z,24.32
2022-09-07T12:40:16.252Z,24.30
2022-09-07T12:42:42.382Z,24.26
2022-09-07T12:45:08.466Z,24.36
2022-09-07T12:47:34.563Z,24.48
2022-09-07T12:50:00.704Z,24.38
2022-09-07T12:52:26.808Z,24.48
2022-09-07T12:55:10.305Z,24.54
2022-09-07T12:57:39.015Z,24.67
2022-09-07T13:00:05.140Z,24.55
2022-09-07T13:02:31.396Z,24.43
2022-09-07T13:04:57.621Z,24.54
2022-09-07T13:07:23.747Z,24.53
2022-09-07T13:09:49.848Z,24.72
2022-09-07T13:12:52.909Z,24.72
2022-09-07T13:15:02.044Z,24.79
2022-09-07T13:17:28.187Z,24.79
2022-09-07T13:19:54.277Z,24.77
2022-09-07T13:22:20.369Z,24.88
2022-09-07T13:24:47.337Z,24.94
2022-09-07T13:27:14.916Z,25.07
2022-09-07T13:29:41.037Z,25.04
2022-09-07T13:32:08.035Z,24.92
2022-09-07T13:34:34.200Z,25.11
2022-09-07T13:37:00.296Z,25.22
2022-09-07T13:39:26.448Z,25.08
2022-09-07T13:41:52.574Z,24.95
2022-09-07T13:44:22.350Z,24.88
2022-09-07T13:46:51.299Z,24.70
2022-09-07T13:49:17.481Z,24.97
2022-09-07T13:51:43.596Z,25.33
2022-09-07T13:54:09.761Z,25.39
2022-09-07T13:56:35.859Z,25.27
2022-09-07T13:59:01.934Z,25.21
2022-09-07T14:01:28.116Z,25.13
2022-09-07T14:03:54.290Z,25.18
2022-09-07T14:06:20.394Z,25.47
2022-09-07T14:08:46.507Z,25.55
2022-09-07T14:11:12.607Z,25.35
2022-09-07T14:13:38.695Z,25.30
2022-09-07T14:16:04.850Z,25.34
2022-09-07T14:18:30.979Z,25.36
2022-09-07T14:20:57.079Z,25.27
2022-09-07T14:23:23.722Z,25.33
2022-09-07T14:28:35.937Z,25.04
2022-09-07T14:31:02.142Z,25.11
2022-09-07T14:33:29.291Z,25.21
2022-09-07T14:35:55.489Z,25.26
2022-09-07T14:39:03.996Z,25.16
2022-09-07T14:41:07.691Z,25.32
2022-09-07T14:43:33.770Z,25.60
2022-09-07T14:46:01.909Z,25.69
2022-09-07T14:48:32.366Z,25.55
2022-09-07T14:51:26.116Z,25.52
2022-09-07T14:53:46.587Z,25.60
2022-09-07T14:56:12.718Z,25.47
2022-09-07T14:58:38.813Z,25.30
2022-09-07T15:03:51.046Z,25.33
2022-09-07T15:09:03.280Z,25.44
2022-09-07T15:11:36.429Z,25.51
2022-09-07T15:14:02.586Z,25.64
2022-09-07T15:16:28.702Z,25.72
2022-09-07T15:18:54.847Z,27.43
2022-09-07T15:21:20.957Z,28.37
2022-09-07T15:23:47.046Z,28.41
2022-09-07T15:27:02.052Z,27.72
2022-09-07T15:29:14.978Z,26.40
2022-09-07T15:31:43.323Z,25.98
2022-09-07T15:34:11.980Z,25.81
2022-09-07T15:36:38.078Z,25.87
2022-09-07T15:39:04.195Z,25.78
2022-09-07T15:41:30.305Z,25.78
2022-09-07T15:43:56.853Z,25.88
2022-09-07T15:46:24.820Z,25.84
2022-09-07T15:48:51.058Z,25.77
2022-09-07T15:54:18.464Z,25.66
2022-09-07T15:57:48.465Z,25.65
2022-09-07T15:59:30.960Z,25.80
2022-09-07T16:01:58.186Z,25.95
2022-09-07T16:04:24.696Z,25.89
2022-09-07T16:06:50.851Z,25.98
2022-09-07T16:09:17.478Z,26.22
2022-09-07T16:11:43.998Z,26.69
2022-09-07T16:14:10.104Z,26.24
2022-09-07T16:19:22.315Z,26.21
2022-09-07T16:21:48.447Z,26.40
2022-09-07T16:24:14.547Z,26.81
2022-09-07T16:26:40.698Z,27.48
2022-09-07T16:29:06.790Z,27.38
2022-09-07T16:31:33.178Z,27.27
2022-09-07T16:33:59.544Z,27.51
2022-09-07T16:36:25.621Z,27.36
2022-09-07T16:38:51.720Z,27.91
2022-09-07T16:41:17.842Z,27.71
2022-09-07T16:43:43.959Z,27.07
2022-09-07T16:46:10.062Z,27.05
2022-09-07T16:48:36.181Z,27.28
2022-09-07T16:51:02.875Z,27.37
2022-09-07T16:53:29.105Z,27.15
2022-09-07T16:55:55.208Z,26.61
2022-09-07T16:58:37.548Z,26.42
2022-09-07T17:01:04.323Z,26.09
2022-09-07T17:03:30.498Z,25.81
2022-09-07T17:05:56.628Z,25.89
2022-09-07T17:08:22.728Z,25.75
2022-09-07T17:10:48.820Z,25.57
2022-09-07T17:13:14.900Z,25.45
2022-09-07T17:15:40.997Z,25.19
2022-09-07T17:18:07.111Z,25.38
2022-09-07T17:20:33.204Z,25.39
2022-09-07T17:23:00.954Z,25.20
2022-09-07T17:25:27.149Z,25.03
2022-09-07T17:27:53.237Z,25.04
2022-09-07T17:30:20.760Z,25.01
2022-09-07T17:32:47.137Z,24.92
2022-09-07T17:35:13.310Z,24.99
2022-09-07T17:37:39.445Z,25.13
2022-09-07T17:40:05.959Z,25.03
2022-09-07T17:45:18.208Z,24.87
2022-09-07T17:47:44.306Z,24.81
2022-09-07T17:50:10.402Z,24.76
2022-09-07T17:52:40.235Z,24.58
2022-09-07T17:55:07.135Z,24.51
2022-09-07T17:57:33.217Z,24.39
2022-09-07T18:00:14.551Z,24.13
2022-09-07T18:02:40.686Z,23.97
2022-09-07T18:05:07.355Z,23.98
2022-09-07T18:07:33.571Z,23.91
2022-09-07T18:09:59.667Z,23.87
2022-09-07T18:12:25.768Z,23.71
2022-09-07T18:14:51.878Z,23.56
2022-09-07T18:17:17.961Z,23.57
2022-09-07T18:19:44.057Z,23.58
2022-09-07T18:22:10.146Z,23.45
2022-09-07T18:24:36.857Z,23.27
2022-09-07T18:27:03.592Z,23.10
2022-09-07T18:29:33.180Z,23.04
2022-09-07T18:32:00.332Z,23.00
2022-09-07T18:34:26.498Z,22.95
2022-09-07T18:36:52.581Z,22.89
2022-09-07T18:39:18.688Z,22.76
2022-09-07T18:41:44.782Z,22.71
2022-09-07T18:46:56.962Z,22.55
2022-09-07T18:49:23.560Z,22.54
2022-09-07T18:54:36.952Z,22.32
2022-09-07T18:57:03.037Z,22.18
2022-09-07T18:59:29.761Z,22.24
2022-09-07T19:02:01.335Z,22.14
2022-09-07T19:05:49.593Z,22.08
2022-09-07T19:07:16.000Z,22.06
2022-09-07T19:09:42.086Z,22.03
2022-09-07T19:12:08.186Z,21.94
2022-09-07T19:14:34.295Z,21.86
2022-09-07T19:17:00.412Z,21.89
2022-09-07T19:19:26.529Z,21.77
2022-09-07T19:21:52.625Z,21.72
2022-09-07T19:24:18.729Z,21.63
2022-09-07T19:26:44.823Z,21.65
2022-09-07T19:29:11.280Z,21.61
2022-09-07T19:31:37.418Z,21.61
2022-09-07T19:34:03.526Z,21.59
2022-09-07T19:36:29.624Z,21.53
2022-09-07T19:38:55.701Z,21.47
2022-09-07T19:41:21.778Z,21.41
2022-09-07T19:43:47.915Z,21.47
2022-09-07T19:46:14.011Z,21.45
2022-09-07T19:48:40.104Z,21.38
2022-09-07T19:51:06.232Z,21.36
2022-09-07T19:53:32.407Z,21.30
2022-09-07T19:55:58.585Z,21.26
2022-09-07T19:58:24.685Z,21.26
2022-09-07T20:00:50.845Z,21.24
2022-09-07T20:03:16.962Z,21.25
2022-09-07T20:05:43.079Z,21.26
2022-09-07T20:08:09.178Z,21.21
2022-09-07T20:10:35.271Z,21.17
2022-09-07T20:13:01.389Z,21.22
2022-09-07T20:15:27.485Z,21.17
2022-09-07T20:17:53.568Z,21.14
2022-09-07T20:20:19.694Z,20.89
2022-09-07T20:22:45.788Z,20.67
2022-09-07T20:25:13.330Z,20.52
2022-09-07T20:27:39.620Z,20.44
2022-09-07T20:30:05.714Z,20.38
2022-09-07T20:32:31.807Z,20.42
2022-09-07T20:34:58.563Z,20.47
2022-09-07T20:37:24.670Z,20.48
2022-09-07T20:39:50.803Z,20.42
2022-09-07T20:42:16.961Z,20.39
2022-09-07T20:44:43.047Z,20.35
2022-09-07T20:47:09.207Z,20.34
2022-09-07T20:49:35.399Z,20.34
2022-09-07T20:52:01.543Z,20.32
2022-09-07T20:54:27.632Z,20.39
2022-09-07T20:56:53.749Z,20.33
2022-09-07T20:59:19.846Z,20.36
2022-09-07T21:01:45.946Z,20.34
2022-09-07T21:04:12.097Z,20.36
2022-09-07T21:06:38.185Z,20.40
2022-09-07T21:09:04.271Z,20.43
2022-09-07T21:11:30.885Z,20.46
2022-09-07T21:13:56.983Z,20.45
2022-09-07T21:16:23.159Z,20.43
2022-09-07T21:18:49.340Z,20.48
2022-09-07T21:21:20.025Z,20.43
2022-09-07T21:23:46.637Z,20.50
2022-09-07T21:26:12.737Z,20.44
2022-09-07T21:28:38.833Z,20.43
2022-09-07T21:31:04.933Z,20.41
2022-09-07T21:33:31.114Z,20.38
2022-09-07T21:35:57.221Z,20.40
2022-09-07T21:38:23.312Z,20.35
2022-09-07T21:40:49.414Z,20.36
2022-09-07T21:43:15.521Z,20.37
2022-09-07T21:45:41.623Z,20.33
2022-09-07T21:48:07.748Z,20.31
2022-09-07T21:50:33.845Z,20.38
2022-09-07T21:52:59.943Z,20.30
2022-09-07T21:55:26.067Z,20.22
2022-09-07T21:57:52.232Z,20.22
2022-09-07T22:00:18.326Z,20.20
2022-09-07T22:02:44.438Z,20.17
2022-09-07T22:05:10.522Z,20.21
2022-09-07T22:07:36.623Z,20.23
2022-09-07T22:10:02.720Z,20.21
2022-09-07T22:12:28.811Z,20.30
2022-09-07T22:14:54.902Z,20.31
2022-09-07T22:17:21.021Z,20.22
2022-09-07T22:19:47.135Z,20.21
2022-09-07T22:22:13.246Z,20.14
2022-09-07T22:24:39.366Z,20.05
2022-09-07T22:27:05.462Z,20.02
2022-09-07T22:29:31.557Z,20.03
2022-09-07T22:31:57.748Z,19.96
2022-09-07T22:34:23.857Z,20.02
2022-09-07T22:36:49.949Z,20.05
2022-09-07T22:39:16.125Z,19.95
2022-09-07T22:41:42.274Z,20.05
2022-09-07T22:44:08.370Z,19.98
2022-09-07T22:46:34.563Z,19.88
2022-09-07T22:49:00.698Z,19.82
2022-09-07T22:51:26.850Z,19.81
2022-09-07T22:53:52.972Z,19.76
2022-09-07T22:56:19.062Z,19.79
2022-09-07T22:58:45.160Z,19.81
2022-09-07T23:01:11.265Z,19.54
2022-09-07T23:03:37.560Z,19.48
2022-09-07T23:06:03.848Z,19.48
2022-09-07T23:08:29.960Z,19.45
2022-09-07T23:10:56.065Z,19.45
2022-09-07T23:13:22.161Z,19.33
2022-09-07T23:15:48.332Z,19.35
2022-09-07T23:18:14.445Z,19.55
2022-09-07T23:20:40.522Z,19.67
2022-09-07T23:23:06.617Z,19.36
2022-09-07T23:25:32.742Z,19.21
2022-09-07T23:27:58.842Z,19.22
2022-09-07T23:30:24.951Z,19.26
2022-09-07T23:32:51.024Z,19.19
2022-09-07T23:35:17.127Z,19.23
2022-09-07T23:37:43.267Z,19.22
2022-09-07T23:40:09.450Z,19.42
2022-09-07T23:42:35.597Z,19.35
2022-09-07T23:45:02.341Z,19.31
2022-09-07T23:47:28.421Z,19.28
2022-09-07T23:49:54.518Z,19.30
2022-09-07T23:52:20.635Z,19.20
2022-09-07T23:54:46.717Z,19.06
2022-09-07T23:57:12.806Z,19.04
2022-09-07T23:59:38.907Z,19.13
